createdAt,value
2022-10-30T00:01:59.660Z,77.17
2022-10-30T00:04:31.253Z,77.42
2022-10-30T00:07:06.208Z,77.53
2022-10-30T00:09:37.656Z,77.46
2022-10-30T00:12:09.323Z,77.06
2022-10-30T00:14:40.988Z,77.51
2022-10-30T00:17:12.901Z,77.31
2022-10-30T00:19:47.104Z,77.67
2022-10-30T00:22:21.287Z,77.21
2022-10-30T00:25:00.122Z,77.27
2022-10-30T00:27:34.797Z,77.49
2022-10-30T00:30:07.183Z,77.67
2022-10-30T00:32:41.427Z,77.60
2022-10-30T00:35:13.088Z,77.76
2022-10-30T00:37:45.050Z,77.54
2022-10-30T00:40:18.200Z,77.33
2022-10-30T00:42:49.859Z,77.50
2022-10-30T00:45:21.541Z,77.42
2022-10-30T00:48:00.146Z,77.27
2022-10-30T00:50:39.495Z,77.41
2022-10-30T00:53:17.741Z,77.80
2022-10-30T00:55:56.344Z,77.82
2022-10-30T00:58:36.304Z,78.22
2022-10-30T01:01:19.981Z,78.21
2022-10-30T01:03:56.557Z,77.89
2022-10-30T01:06:34.587Z,78.07
2022-10-30T01:09:09.060Z,77.88
2022-10-30T01:11:41.460Z,78.24
2022-10-30T01:14:17.381Z,78.06
2022-10-30T01:17:02.957Z,77.71
2022-10-30T01:20:03.533Z,77.80
2022-10-30T01:22:54.734Z,78.05
2022-10-30T01:25:44.595Z,77.66
2022-10-30T01:28:38.337Z,77.31
2022-10-30T01:31:50.432Z,77.64
2022-10-30T01:34:53.379Z,77.71
2022-10-30T01:37:34.040Z,77.59
2022-10-30T01:40:13.500Z,78.09
2022-10-30T01:42:52.729Z,77.74
2022-10-30T01:45:56.525Z,78.42
2022-10-30T01:48:52.673Z,78.48
2022-10-30T01:51:52.508Z,78.17
2022-10-30T01:54:58.632Z,77.86
2022-10-30T01:57:58.004Z,78.10
2022-10-30T02:00:32.335Z,77.95
2022-10-30T02:03:05.327Z,78.05
2022-10-30T02:05:48.646Z,78.42
2022-10-30T02:08:24.569Z,77.85
2022-10-30T02:10:58.255Z,77.41
2022-10-30T02:13:46.002Z,77.09
2022-10-30T02:16:19.293Z,77.73
2022-10-30T02:18:50.914Z,77.89
2022-10-30T02:21:22.549Z,77.48
2022-10-30T02:23:55.855Z,77.52
2022-10-30T02:26:27.495Z,77.34
2022-10-30T02:28:59.191Z,77.35
2022-10-30T02:31:30.883Z,76.88
2022-10-30T02:34:02.698Z,77.32
2022-10-30T02:36:38.005Z,77.53
2022-10-30T02:39:12.455Z,77.20
2022-10-30T02:41:51.181Z,77.29
2022-10-30T02:44:22.813Z,77.22
2022-10-30T02:46:54.413Z,77.16
2022-10-30T02:49:27.519Z,77.24
2022-10-30T02:51:59.360Z,77.45
2022-10-30T02:54:35.088Z,77.29
2022-10-30T02:57:10.197Z,77.24
2022-10-30T02:59:42.927Z,77.90
2022-10-30T03:02:17.388Z,77.92
2022-10-30T03:04:49.099Z,77.85
2022-10-30T03:07:20.798Z,78.04
2022-10-30T03:09:55.528Z,78.05
2022-10-30T03:12:27.125Z,78.14
2022-10-30T03:15:01.783Z,78.22
2022-10-30T03:17:33.436Z,78.51
2022-10-30T03:20:05.482Z,78.54
2022-10-30T03:22:38.504Z,78.67
2022-10-30T03:25:12.124Z,79.18
2022-10-30T03:27:52.850Z,79.12
2022-10-30T03:30:25.360Z,79.53
2022-10-30T03:32:59.106Z,79.63
2022-10-30T03:35:32.849Z,80.04
2022-10-30T03:38:04.537Z,80.14
2022-10-30T03:40:37.337Z,80.48
2022-10-30T03:43:09.540Z,80.91
2022-10-30T03:45:49.319Z,81.00
2022-10-30T03:48:24.721Z,80.97
2022-10-30T03:50:57.997Z,81.15
2022-10-30T03:53:30.191Z,81.08
2022-10-30T03:56:04.639Z,80.94
2022-10-30T03:59:00.884Z,80.98
2022-10-30T04:01:36.386Z,80.58
2022-10-30T04:04:08.310Z,80.85
2022-10-30T04:06:40.022Z,80.82
2022-10-30T04:09:19.050Z,81.00
2022-10-30T04:11:50.833Z,81.13
2022-10-30T04:14:25.251Z,81.52
2022-10-30T04:16:56.990Z,81.78
2022-10-30T04:19:28.595Z,81.84
2022-10-30T04:22:00.270Z,82.08
2022-10-30T04:24:32.088Z,81.50
2022-10-30T04:27:06.916Z,81.21
2022-10-30T04:29:38.392Z,81.75
2022-10-30T04:32:10.739Z,81.33
2022-10-30T04:34:42.760Z,81.17
2022-10-30T04:37:14.553Z,81.78
2022-10-30T04:39:48.676Z,81.38
2022-10-30T04:42:25.747Z,81.48
2022-10-30T04:44:58.991Z,81.05
2022-10-30T04:47:30.940Z,81.36
2022-10-30T04:50:02.868Z,81.32
2022-10-30T04:52:37.681Z,81.45
2022-10-30T04:55:10.808Z,81.52
2022-10-30T04:57:42.969Z,80.90
2022-10-30T05:00:14.819Z,81.26
2022-10-30T05:02:46.590Z,81.18
2022-10-30T05:05:18.270Z,80.91
2022-10-30T05:07:49.910Z,80.98
2022-10-30T05:10:22.944Z,80.85
2022-10-30T05:13:00.643Z,81.31
2022-10-30T05:15:38.325Z,81.89
2022-10-30T05:18:16.059Z,82.86
2022-10-30T05:20:50.980Z,83.02
2022-10-30T05:23:25.457Z,83.29
2022-10-30T05:25:57.140Z,82.87
2022-10-30T05:28:33.340Z,83.14
2022-10-30T05:31:05.210Z,83.26
2022-10-30T05:33:58.664Z,82.80
2022-10-30T05:36:34.208Z,82.51
2022-10-30T05:39:06.734Z,82.42
2022-10-30T05:41:45.501Z,82.25
2022-10-30T05:44:34.207Z,82.42
2022-10-30T05:47:12.901Z,82.13
2022-10-30T05:49:49.449Z,82.11
2022-10-30T05:52:27.284Z,82.20
2022-10-30T05:55:03.498Z,82.25
2022-10-30T05:57:46.692Z,83.00
2022-10-30T06:00:18.413Z,83.21
2022-10-30T06:02:50.013Z,83.25
2022-10-30T06:05:21.666Z,83.57
2022-10-30T06:07:57.233Z,83.25
2022-10-30T06:10:29.357Z,83.06
2022-10-30T06:13:23.096Z,83.62
2022-10-30T06:16:16.258Z,83.63
2022-10-30T06:19:08.045Z,83.38
2022-10-30T06:21:50.100Z,84.14
2022-10-30T06:24:47.077Z,84.11
2022-10-30T06:27:44.475Z,84.08
2022-10-30T06:30:20.155Z,84.04
2022-10-30T06:33:02.693Z,84.08
2022-10-30T06:35:34.903Z,83.80
2022-10-30T06:38:08.755Z,83.83
2022-10-30T06:40:41.145Z,83.65
2022-10-30T06:43:27.792Z,84.02
2022-10-30T06:46:03.406Z,84.06
2022-10-30T06:48:36.986Z,83.92
2022-10-30T06:51:08.775Z,84.23
2022-10-30T06:53:46.198Z,84.09
2022-10-30T06:56:50.611Z,83.68
2022-10-30T06:59:47.199Z,83.42
2022-10-30T07:03:02.076Z,83.45
2022-10-30T07:05:37.613Z,83.13
2022-10-30T07:08:09.300Z,83.48
2022-10-30T07:10:41.568Z,83.06
2022-10-30T07:13:32.132Z,83.05
2022-10-30T07:16:22.550Z,82.62
2022-10-30T07:18:59.280Z,82.97
2022-10-30T07:21:35.835Z,82.33
2022-10-30T07:24:11.546Z,82.47
2022-10-30T07:26:55.976Z,82.07
2022-10-30T07:29:53.741Z,81.95
2022-10-30T07:32:46.225Z,83.03
2022-10-30T07:35:38.857Z,83.26
2022-10-30T07:38:28.175Z,84.08
2022-10-30T07:41:07.645Z,83.27
2022-10-30T07:43:54.417Z,82.36
2022-10-30T07:46:47.814Z,81.51
2022-10-30T07:49:31.739Z,80.12
2022-10-30T07:52:14.490Z,80.23
2022-10-30T07:54:50.451Z,79.50
2022-10-30T07:57:43.178Z,77.93
2022-10-30T08:00:23.660Z,75.04
2022-10-30T08:03:05.260Z,71.72
2022-10-30T08:05:55.516Z,68.19
2022-10-30T08:08:43.108Z,63.75
2022-10-30T08:11:34.433Z,61.55
2022-10-30T08:14:07.704Z,60.30
2022-10-30T08:16:39.348Z,60.42
2022-10-30T08:19:12.368Z,59.46
2022-10-30T08:21:46.908Z,56.99
2022-10-30T08:24:25.344Z,56.57
2022-10-30T08:26:58.806Z,54.62
2022-10-30T08:29:32.491Z,54.11
2022-10-30T08:32:04.649Z,52.10
2022-10-30T08:35:01.904Z,50.40
2022-10-30T08:37:39.562Z,48.04
2022-10-30T08:40:11.386Z,47.66
2022-10-30T08:43:02.939Z,45.88
2022-10-30T08:45:37.174Z,44.33
2022-10-30T08:48:16.287Z,43.15
2022-10-30T08:50:51.238Z,43.33
2022-10-30T08:53:30.873Z,43.23
2022-10-30T08:56:02.932Z,43.17
2022-10-30T08:58:46.387Z,42.32
2022-10-30T09:01:19.692Z,42.50
2022-10-30T09:04:15.588Z,42.65
2022-10-30T09:06:56.067Z,43.73
2022-10-30T09:09:48.555Z,44.93
2022-10-30T09:12:24.375Z,44.81
2022-10-30T09:14:56.008Z,44.83
2022-10-30T09:17:27.811Z,44.64
2022-10-30T09:20:00.393Z,44.62
2022-10-30T09:22:41.670Z,44.42
2022-10-30T09:25:15.923Z,44.21
2022-10-30T09:27:53.789Z,44.73
2022-10-30T09:30:28.613Z,44.86
2022-10-30T09:33:02.675Z,45.69
2022-10-30T09:35:54.660Z,47.32
2022-10-30T09:38:26.537Z,48.80
2022-10-30T09:41:18.618Z,50.21
2022-10-30T09:44:07.261Z,52.05
2022-10-30T09:47:06.332Z,52.78
2022-10-30T09:50:15.833Z,53.69
2022-10-30T09:53:50.025Z,52.48
2022-10-30T09:56:39.097Z,52.46
2022-10-30T09:59:36.351Z,52.63
2022-10-30T10:02:27.742Z,53.22
2022-10-30T10:05:20.410Z,53.72
2022-10-30T10:08:17.467Z,53.77
2022-10-30T10:11:28.896Z,55.01
2022-10-30T10:14:14.916Z,55.37
2022-10-30T10:16:54.560Z,55.63
2022-10-30T10:19:34.641Z,56.85
2022-10-30T10:22:17.406Z,57.44
2022-10-30T10:24:49.817Z,57.69
2022-10-30T10:28:09.635Z,57.38
2022-10-30T10:30:50.192Z,57.53
2022-10-30T10:33:43.380Z,56.68
2022-10-30T10:36:55.366Z,56.34
2022-10-30T10:39:46.558Z,56.07
2022-10-30T10:42:47.913Z,56.00
2022-10-30T10:45:29.461Z,55.97
2022-10-30T10:48:25.375Z,56.24
2022-10-30T10:51:33.716Z,56.06
2022-10-30T10:54:15.049Z,55.79
2022-10-30T10:56:56.011Z,55.87
2022-10-30T10:59:38.512Z,56.13
2022-10-30T11:02:32.057Z,56.09
2022-10-30T11:05:31.247Z,56.46
2022-10-30T11:08:25.329Z,56.20
2022-10-30T11:11:07.562Z,56.57
2022-10-30T11:13:45.558Z,56.14
2022-10-30T11:16:38.515Z,55.79
2022-10-30T11:19:10.104Z,56.25
2022-10-30T11:21:54.535Z,57.19
2022-10-30T11:24:34.031Z,58.29
2022-10-30T11:27:28.619Z,58.53
2022-10-30T11:30:06.127Z,58.80
2022-10-30T11:32:37.772Z,59.21
2022-10-30T11:35:09.364Z,59.08
2022-10-30T11:37:43.265Z,58.91
2022-10-30T11:40:15.004Z,59.61
2022-10-30T11:42:54.784Z,60.04
2022-10-30T11:45:37.752Z,59.69
2022-10-30T11:48:18.380Z,59.20
2022-10-30T11:50:54.875Z,59.09
2022-10-30T11:53:52.180Z,58.53
2022-10-30T11:56:23.819Z,58.29
2022-10-30T11:58:59.740Z,58.05
2022-10-30T12:01:36.847Z,57.66
2022-10-30T12:04:28.298Z,57.39
2022-10-30T12:07:28.003Z,57.81
2022-10-30T12:10:01.704Z,57.98
2022-10-30T12:12:41.919Z,58.07
2022-10-30T12:15:13.452Z,58.17
2022-10-30T12:17:53.322Z,58.09
2022-10-30T12:20:26.175Z,58.50
2022-10-30T12:23:00.632Z,58.36
2022-10-30T12:25:32.998Z,58.67
2022-10-30T12:28:06.519Z,58.43
2022-10-30T12:30:52.547Z,58.44
2022-10-30T12:33:50.362Z,58.27
2022-10-30T12:36:37.636Z,59.06
2022-10-30T12:39:19.535Z,59.57
2022-10-30T12:42:11.487Z,59.56
2022-10-30T12:44:54.452Z,59.85
2022-10-30T12:47:52.299Z,59.99
2022-10-30T12:50:27.921Z,59.84
2022-10-30T12:53:07.257Z,59.79
2022-10-30T12:55:45.214Z,59.81
2022-10-30T12:58:33.795Z,60.18
2022-10-30T13:01:12.357Z,60.21
2022-10-30T13:03:51.394Z,60.39
2022-10-30T13:06:28.543Z,60.45
2022-10-30T13:09:49.104Z,60.88
2022-10-30T13:12:30.683Z,60.78
2022-10-30T13:15:21.788Z,60.43
2022-10-30T13:20:45.414Z,61.33
2022-10-30T13:23:28.677Z,61.69
2022-10-30T13:26:13.437Z,63.03
2022-10-30T13:29:30.789Z,64.27
2022-10-30T13:32:38.684Z,64.80
2022-10-30T13:35:20.662Z,64.85
2022-10-30T13:38:14.172Z,65.45
2022-10-30T13:41:08.298Z,66.00
2022-10-30T13:44:25.188Z,66.24
2022-10-30T13:46:57.092Z,66.13
2022-10-30T13:49:57.029Z,66.37
2022-10-30T13:52:36.550Z,65.92
2022-10-30T13:55:19.341Z,66.33
2022-10-30T13:58:19.823Z,67.02
2022-10-30T14:01:56.403Z,67.73
2022-10-30T14:04:50.429Z,67.66
2022-10-30T14:07:38.998Z,66.99
2022-10-30T14:10:55.929Z,66.81
2022-10-30T14:13:56.747Z,66.44
2022-10-30T14:16:40.419Z,66.25
2022-10-30T14:19:15.038Z,66.84
2022-10-30T14:21:57.758Z,67.66
2022-10-30T14:24:44.114Z,68.61
2022-10-30T14:27:26.962Z,68.53
2022-10-30T14:30:00.255Z,67.81
2022-10-30T14:32:42.290Z,67.75
2022-10-30T14:35:38.291Z,67.65
2022-10-30T14:38:09.870Z,68.20
2022-10-30T14:40:57.086Z,68.14
2022-10-30T14:43:57.533Z,68.02
2022-10-30T14:46:57.729Z,67.83
2022-10-30T14:49:42.767Z,67.76
2022-10-30T14:52:27.288Z,67.74
2022-10-30T14:55:14.194Z,67.67
2022-10-30T14:58:05.967Z,68.72
2022-10-30T15:00:40.809Z,68.84
2022-10-30T15:03:13.517Z,68.84
2022-10-30T15:06:03.207Z,68.81
2022-10-30T15:09:26.467Z,69.40
2022-10-30T15:12:20.862Z,69.53
2022-10-30T15:14:59.500Z,69.51
2022-10-30T15:17:36.950Z,69.22
2022-10-30T15:20:25.060Z,69.57
2022-10-30T15:23:18.299Z,70.09
2022-10-30T15:25:55.723Z,70.73
2022-10-30T15:28:34.560Z,71.11
2022-10-30T15:31:18.420Z,71.93
2022-10-30T15:33:59.671Z,72.28
2022-10-30T15:36:40.896Z,72.15
2022-10-30T15:39:17.484Z,72.15
2022-10-30T15:41:56.976Z,72.11
2022-10-30T15:44:35.207Z,71.87
2022-10-30T15:47:17.048Z,71.74
2022-10-30T15:49:55.161Z,71.73
2022-10-30T15:52:29.615Z,71.63
2022-10-30T15:55:17.051Z,71.51
2022-10-30T15:58:08.906Z,71.65
2022-10-30T16:00:40.578Z,71.82
2022-10-30T16:03:14.968Z,71.83
2022-10-30T16:05:46.671Z,71.88
2022-10-30T16:08:23.725Z,71.98
2022-10-30T16:10:56.682Z,72.27
2022-10-30T16:13:30.938Z,72.63
2022-10-30T16:16:03.541Z,72.86
2022-10-30T16:18:37.075Z,72.96
2022-10-30T16:21:13.957Z,73.19
2022-10-30T16:23:52.162Z,73.66
2022-10-30T16:26:38.086Z,73.93
2022-10-30T16:29:21.208Z,73.91
2022-10-30T16:31:53.687Z,74.07
2022-10-30T16:34:34.803Z,74.29
2022-10-30T16:37:11.077Z,74.44
2022-10-30T16:39:45.736Z,74.61
2022-10-30T16:42:23.446Z,74.95
2022-10-30T16:45:24.423Z,75.31
2022-10-30T16:48:08.920Z,75.62
2022-10-30T16:50:40.966Z,76.89
2022-10-30T16:53:25.952Z,76.75
2022-10-30T16:56:01.652Z,76.73
2022-10-30T16:58:33.382Z,76.69
2022-10-30T17:01:06.708Z,76.63
2022-10-30T17:03:46.563Z,76.76
2022-10-30T17:06:27.260Z,77.24
2022-10-30T17:09:00.937Z,77.31
2022-10-30T17:11:44.531Z,77.28
2022-10-30T17:14:22.001Z,77.40
2022-10-30T17:16:56.441Z,77.42
2022-10-30T17:19:33.922Z,77.47
2022-10-30T17:22:14.352Z,77.78
2022-10-30T17:24:47.679Z,77.41
2022-10-30T17:27:49.345Z,77.82
2022-10-30T17:30:39.316Z,77.51
2022-10-30T17:33:37.874Z,77.76
2022-10-30T17:36:09.578Z,77.63
2022-10-30T17:38:41.166Z,77.96
2022-10-30T17:41:16.922Z,77.89
2022-10-30T17:43:51.628Z,78.01
2022-10-30T17:46:25.536Z,78.40
2022-10-30T17:48:59.126Z,78.40
2022-10-30T17:51:32.388Z,78.42
2022-10-30T17:54:10.006Z,78.70
2022-10-30T17:56:42.126Z,78.73
2022-10-30T17:59:16.158Z,78.75
2022-10-30T18:01:50.766Z,79.23
2022-10-30T18:04:22.353Z,79.45
2022-10-30T18:06:53.991Z,79.80
2022-10-30T18:09:25.589Z,79.41
2022-10-30T18:11:57.181Z,79.26
2022-10-30T18:14:28.820Z,79.42
2022-10-30T18:17:00.529Z,79.42
2022-10-30T18:19:35.235Z,79.89
2022-10-30T18:22:06.875Z,79.69
2022-10-30T18:24:38.931Z,79.50
2022-10-30T18:27:10.561Z,79.56
2022-10-30T18:29:42.148Z,79.83
2022-10-30T18:32:14.779Z,80.32
2022-10-30T18:34:46.406Z,80.81
2022-10-30T18:37:18.058Z,80.41
2022-10-30T18:39:49.669Z,80.61
2022-10-30T18:42:24.145Z,80.63
2022-10-30T18:44:58.024Z,80.60
2022-10-30T18:47:29.636Z,80.86
2022-10-30T18:50:01.276Z,82.28
2022-10-30T18:52:33.147Z,82.35
2022-10-30T18:55:39.376Z,82.50
2022-10-30T18:58:11.940Z,82.31
2022-10-30T19:01:10.439Z,82.73
2022-10-30T19:03:42.037Z,82.56
2022-10-30T19:06:22.334Z,82.44
2022-10-30T19:08:55.243Z,82.22
2022-10-30T19:11:30.257Z,82.31
2022-10-30T19:14:05.981Z,82.29
2022-10-30T19:16:37.603Z,82.05
2022-10-30T19:19:09.497Z,82.25
2022-10-30T19:21:41.143Z,82.37
2022-10-30T19:24:15.149Z,82.49
2022-10-30T19:26:48.005Z,82.54
2022-10-30T19:29:19.604Z,82.39
2022-10-30T19:31:53.935Z,82.07
2022-10-30T19:34:25.574Z,82.10
2022-10-30T19:36:57.223Z,82.13
2022-10-30T19:39:28.881Z,82.10
2022-10-30T19:42:00.511Z,81.99
2022-10-30T19:44:32.107Z,81.84
2022-10-30T19:47:03.726Z,81.67
2022-10-30T19:49:35.353Z,81.36
2022-10-30T19:52:06.988Z,80.98
2022-10-30T19:54:38.582Z,81.16
2022-10-30T19:57:13.842Z,81.46
2022-10-30T19:59:45.472Z,81.53
2022-10-30T20:02:17.189Z,81.39
2022-10-30T20:04:48.931Z,81.47
2022-10-30T20:07:20.606Z,81.25
2022-10-30T20:09:52.221Z,81.37
2022-10-30T20:12:23.860Z,81.12
2022-10-30T20:14:58.427Z,80.96
2022-10-30T20:17:29.935Z,81.58
2022-10-30T20:20:01.498Z,81.34
2022-10-30T20:22:33.132Z,81.25
2022-10-30T20:25:05.099Z,81.49
2022-10-30T20:27:43.195Z,81.96
2022-10-30T20:30:32.733Z,82.05
2022-10-30T20:33:12.142Z,82.19
2022-10-30T20:35:43.757Z,82.32
2022-10-30T20:38:22.200Z,82.75
2022-10-30T20:40:54.344Z,82.59
2022-10-30T20:43:31.792Z,82.44
2022-10-30T20:46:06.027Z,82.30
2022-10-30T20:48:38.077Z,81.97
2022-10-30T20:51:11.254Z,81.91
2022-10-30T20:53:42.888Z,81.58
2022-10-30T20:56:16.762Z,81.68
2022-10-30T20:58:48.392Z,81.74
2022-10-30T21:01:20.120Z,81.49
2022-10-30T21:03:53.774Z,81.53
2022-10-30T21:06:30.197Z,81.27
2022-10-30T21:09:01.840Z,81.24
2022-10-30T21:11:33.749Z,81.10
2022-10-30T21:14:05.400Z,81.23
2022-10-30T21:16:39.928Z,81.27
2022-10-30T21:19:13.758Z,81.56
2022-10-30T21:21:45.412Z,81.60
2022-10-30T21:24:17.132Z,81.45
2022-10-30T21:26:48.706Z,81.13
2022-10-30T21:29:20.315Z,81.37
2022-10-30T21:31:51.903Z,81.41
2022-10-30T21:34:23.579Z,81.12
2022-10-30T21:36:55.194Z,81.39
2022-10-30T21:39:26.820Z,81.54
2022-10-30T21:41:58.496Z,81.40
2022-10-30T21:44:30.170Z,81.40
2022-10-30T21:47:04.661Z,82.06
2022-10-30T21:49:39.711Z,82.64
2022-10-30T21:52:14.364Z,82.93
2022-10-30T21:54:45.801Z,82.97
2022-10-30T21:57:17.364Z,82.51
2022-10-30T21:59:48.967Z,82.14
2022-10-30T22:02:20.612Z,82.38
2022-10-30T22:04:52.263Z,82.74
2022-10-30T22:07:24.163Z,82.92
2022-10-30T22:09:58.796Z,83.12
2022-10-30T22:12:30.325Z,83.31
2022-10-30T22:15:01.969Z,82.95
2022-10-30T22:17:34.960Z,82.57
2022-10-30T22:20:08.828Z,82.57
2022-10-30T22:22:48.829Z,82.45
2022-10-30T22:25:23.530Z,82.59
2022-10-30T22:27:54.911Z,82.90
2022-10-30T22:30:26.605Z,82.73
2022-10-30T22:32:59.450Z,82.72
2022-10-30T22:35:31.253Z,82.57
2022-10-30T22:38:06.966Z,82.50
2022-10-30T22:40:38.774Z,82.13
2022-10-30T22:43:10.435Z,82.52
2022-10-30T22:45:47.233Z,83.07
2022-10-30T22:48:21.904Z,83.02
2022-10-30T22:51:04.440Z,83.35
2022-10-30T22:53:37.619Z,83.31
2022-10-30T22:56:23.787Z,82.92
2022-10-30T22:58:56.441Z,83.11
2022-10-30T23:01:32.489Z,82.95
2022-10-30T23:04:05.422Z,82.72
2022-10-30T23:06:37.614Z,82.80
2022-10-30T23:09:16.068Z,82.94
2022-10-30T23:11:50.994Z,83.38
2022-10-30T23:14:26.945Z,83.36
2022-10-30T23:16:59.931Z,83.50
2022-10-30T23:19:31.568Z,83.81
2022-10-30T23:22:03.219Z,83.90
2022-10-30T23:24:34.787Z,84.09
2022-10-30T23:27:06.386Z,84.10
2022-10-30T23:29:37.948Z,84.58
2022-10-30T23:32:12.703Z,84.99
2022-10-30T23:34:44.109Z,85.35
2022-10-30T23:37:15.709Z,85.84
2022-10-30T23:39:47.597Z,85.88
2022-10-30T23:42:19.186Z,85.86
2022-10-30T23:44:50.745Z,85.82
2022-10-30T23:47:24.795Z,85.77
2022-10-30T23:49:56.428Z,86.16
2022-10-30T23:52:31.009Z,85.85
2022-10-30T23:55:02.627Z,85.43
2022-10-30T23:57:34.219Z,85.25
